sensor_id;sensor_type;location;lat;lon;timestamp;P1;durP1;ratioP1;P2;durP2;ratioP2
15958;SDS011;8078;47.822;9.402;2023-07-13T00:01:27;19.80;;;13.30;;
15958;SDS011;8078;47.822;9.402;2023-07-13T00:03:54;21.45;;;13.18;;
15958;SDS011;8078;47.822;9.402;2023-07-13T00:06:21;21.08;;;13.82;;
15958;SDS011;8078;47.822;9.402;2023-07-13T00:08:46;18.90;;;12.52;;
15958;SDS011;8078;47.822;9.402;2023-07-13T00:11:13;21.88;;;13.07;;
15958;SDS011;8078;47.822;9.402;2023-07-13T00:13:40;23.92;;;13.40;;
15958;SDS011;8078;47.822;9.402;2023-07-13T00:16:07;20.00;;;12.38;;
15958;SDS011;8078;47.822;9.402;2023-07-13T00:18:33;19.30;;;11.80;;
15958;SDS011;8078;47.822;9.402;2023-07-13T00:20:59;20.95;;;11.88;;
15958;SDS011;8078;47.822;9.402;2023-07-13T00:23:36;17.85;;;11.18;;
15958;SDS011;8078;47.822;9.402;2023-07-13T00:26:06;19.60;;;11.15;;
15958;SDS011;8078;47.822;9.402;2023-07-13T00:28:33;21.08;;;11.95;;
15958;SDS011;8078;47.822;9.402;2023-07-13T00:30:59;22.55;;;10.98;;
15958;SDS011;8078;47.822;9.402;2023-07-13T00:33:26;17.38;;;10.90;;
15958;SDS011;8078;47.822;9.402;2023-07-13T00:35:54;17.80;;;11.43;;
15958;SDS011;8078;47.822;9.402;2023-07-13T00:38:20;20.75;;;11.73;;
15958;SDS011;8078;47.822;9.402;2023-07-13T00:40:46;16.92;;;11.40;;
15958;SDS011;8078;47.822;9.402;2023-07-13T00:43:15;17.50;;;10.65;;
15958;SDS011;8078;47.822;9.402;2023-07-13T00:48:13;15.60;;;9.15;;
15958;SDS011;8078;47.822;9.402;2023-07-13T00:50:41;16.23;;;10.20;;
15958;SDS011;8078;47.822;9.402;2023-07-13T00:53:09;17.17;;;9.80;;
15958;SDS011;8078;47.822;9.402;2023-07-13T00:55:36;17.30;;;9.48;;
15958;SDS011;8078;47.822;9.402;2023-07-13T00:58:02;16.90;;;9.95;;
15958;SDS011;8078;47.822;9.402;2023-07-13T01:00:30;17.10;;;10.93;;
15958;SDS011;8078;47.822;9.402;2023-07-13T01:02:55;20.40;;;11.52;;
15958;SDS011;8078;47.822;9.402;2023-07-13T01:05:22;15.18;;;11.23;;
15958;SDS011;8078;47.822;9.402;2023-07-13T01:07:49;17.67;;;11.73;;
15958;SDS011;8078;47.822;9.402;2023-07-13T01:13:05;213.02;;;22.02;;
15958;SDS011;8078;47.822;9.402;2023-07-13T01:15:33;24.88;;;14.38;;
15958;SDS011;8078;47.822;9.402;2023-07-13T01:18:11;21.90;;;13.20;;
15958;SDS011;8078;47.822;9.402;2023-07-13T01:20:57;20.52;;;12.70;;
15958;SDS011;8078;47.822;9.402;2023-07-13T01:23:24;17.65;;;11.00;;
15958;SDS011;8078;47.822;9.402;2023-07-13T01:25:51;19.33;;;12.43;;
15958;SDS011;8078;47.822;9.402;2023-07-13T01:28:17;19.25;;;11.73;;
15958;SDS011;8078;47.822;9.402;2023-07-13T01:30:44;16.95;;;11.07;;
15958;SDS011;8078;47.822;9.402;2023-07-13T01:33:11;17.77;;;10.32;;
15958;SDS011;8078;47.822;9.402;2023-07-13T01:35:38;15.57;;;10.20;;
15958;SDS011;8078;47.822;9.402;2023-07-13T01:38:03;23.42;;;10.00;;
15958;SDS011;8078;47.822;9.402;2023-07-13T01:40:29;17.33;;;10.68;;
15958;SDS011;8078;47.822;9.402;2023-07-13T01:42:55;17.85;;;9.85;;
15958;SDS011;8078;47.822;9.402;2023-07-13T01:45:22;19.55;;;9.57;;
15958;SDS011;8078;47.822;9.402;2023-07-13T01:47:48;15.43;;;10.15;;
15958;SDS011;8078;47.822;9.402;2023-07-13T01:50:14;17.67;;;10.48;;
15958;SDS011;8078;47.822;9.402;2023-07-13T01:52:39;17.75;;;10.02;;
15958;SDS011;8078;47.822;9.402;2023-07-13T01:55:05;17.85;;;10.40;;
15958;SDS011;8078;47.822;9.402;2023-07-13T01:57:31;17.38;;;10.63;;
15958;SDS011;8078;47.822;9.402;2023-07-13T01:59:57;15.55;;;10.35;;
15958;SDS011;8078;47.822;9.402;2023-07-13T02:02:22;20.73;;;11.93;;
15958;SDS011;8078;47.822;9.402;2023-07-13T02:04:48;20.38;;;10.82;;
15958;SDS011;8078;47.822;9.402;2023-07-13T02:07:13;18.00;;;11.88;;
15958;SDS011;8078;47.822;9.402;2023-07-13T02:09:40;16.63;;;11.70;;
15958;SDS011;8078;47.822;9.402;2023-07-13T02:15:28;19.83;;;12.30;;
15958;SDS011;8078;47.822;9.402;2023-07-13T02:17:54;21.55;;;13.18;;
15958;SDS011;8078;47.822;9.402;2023-07-13T02:20:20;20.98;;;12.48;;
15958;SDS011;8078;47.822;9.402;2023-07-13T02:22:45;31.73;;;13.20;;
15958;SDS011;8078;47.822;9.402;2023-07-13T02:25:11;20.75;;;12.75;;
15958;SDS011;8078;47.822;9.402;2023-07-13T02:27:36;26.02;;;13.77;;
15958;SDS011;8078;47.822;9.402;2023-07-13T02:30:02;23.02;;;14.55;;
15958;SDS011;8078;47.822;9.402;2023-07-13T02:32:28;22.50;;;14.20;;
15958;SDS011;8078;47.822;9.402;2023-07-13T02:34:53;25.38;;;15.48;;
15958;SDS011;8078;47.822;9.402;2023-07-13T02:37:19;37.22;;;16.05;;
15958;SDS011;8078;47.822;9.402;2023-07-13T02:39:44;87.78;;;18.33;;
15958;SDS011;8078;47.822;9.402;2023-07-13T02:42:10;537.78;;;34.78;;
15958;SDS011;8078;47.822;9.402;2023-07-13T02:44:36;541.97;;;34.40;;
15958;SDS011;8078;47.822;9.402;2023-07-13T02:47:01;655.63;;;36.03;;
15958;SDS011;8078;47.822;9.402;2023-07-13T02:49:27;744.17;;;43.35;;
15958;SDS011;8078;47.822;9.402;2023-07-13T02:51:52;724.45;;;41.47;;
15958;SDS011;8078;47.822;9.402;2023-07-13T02:54:18;178.00;;;19.65;;
15958;SDS011;8078;47.822;9.402;2023-07-13T02:56:43;20.73;;;14.55;;
15958;SDS011;8078;47.822;9.402;2023-07-13T02:59:09;27.77;;;14.30;;
15958;SDS011;8078;47.822;9.402;2023-07-13T03:01:35;21.92;;;14.02;;
15958;SDS011;8078;47.822;9.402;2023-07-13T03:04:01;21.65;;;13.43;;
15958;SDS011;8078;47.822;9.402;2023-07-13T03:06:28;16.20;;;11.98;;
15958;SDS011;8078;47.822;9.402;2023-07-13T03:08:55;17.38;;;10.95;;
15958;SDS011;8078;47.822;9.402;2023-07-13T03:11:21;22.50;;;11.95;;
15958;SDS011;8078;47.822;9.402;2023-07-13T03:13:46;22.67;;;12.43;;
15958;SDS011;8078;47.822;9.402;2023-07-13T03:16:13;17.42;;;12.30;;
15958;SDS011;8078;47.822;9.402;2023-07-13T03:18:41;17.23;;;12.73;;
15958;SDS011;8078;47.822;9.402;2023-07-13T03:21:07;22.17;;;13.90;;
15958;SDS011;8078;47.822;9.402;2023-07-13T03:23:33;21.15;;;12.60;;
15958;SDS011;8078;47.822;9.402;2023-07-13T03:26:03;19.55;;;12.65;;
15958;SDS011;8078;47.822;9.402;2023-07-13T03:28:33;17.55;;;12.23;;
15958;SDS011;8078;47.822;9.402;2023-07-13T03:31:02;15.80;;;10.95;;
15958;SDS011;8078;47.822;9.402;2023-07-13T03:33:30;13.90;;;9.82;;
15958;SDS011;8078;47.822;9.402;2023-07-13T03:35:56;15.90;;;10.40;;
15958;SDS011;8078;47.822;9.402;2023-07-13T03:38:22;11.25;;;9.18;;
15958;SDS011;8078;47.822;9.402;2023-07-13T03:40:48;15.77;;;8.05;;
15958;SDS011;8078;47.822;9.402;2023-07-13T03:43:14;8.32;;;5.70;;
15958;SDS011;8078;47.822;9.402;2023-07-13T03:45:39;6.15;;;4.50;;
15958;SDS011;8078;47.822;9.402;2023-07-13T03:48:05;7.13;;;4.28;;
15958;SDS011;8078;47.822;9.402;2023-07-13T03:50:31;6.72;;;4.03;;
15958;SDS011;8078;47.822;9.402;2023-07-13T03:53:00;7.93;;;4.20;;
15958;SDS011;8078;47.822;9.402;2023-07-13T03:55:25;8.32;;;4.40;;
15958;SDS011;8078;47.822;9.402;2023-07-13T03:57:54;8.13;;;3.75;;
15958;SDS011;8078;47.822;9.402;2023-07-13T04:00:24;5.32;;;4.03;;
15958;SDS011;8078;47.822;9.402;2023-07-13T04:02:50;6.55;;;4.07;;
15958;SDS011;8078;47.822;9.402;2023-07-13T04:05:16;5.40;;;4.10;;
15958;SDS011;8078;47.822;9.402;2023-07-13T04:07:42;4.20;;;3.80;;
15958;SDS011;8078;47.822;9.402;2023-07-13T04:10:09;7.57;;;3.75;;
15958;SDS011;8078;47.822;9.402;2023-07-13T04:12:34;7.18;;;3.63;;
15958;SDS011;8078;47.822;9.402;2023-07-13T04:15:00;4.57;;;3.80;;
15958;SDS011;8078;47.822;9.402;2023-07-13T04:17:25;6.05;;;3.92;;
15958;SDS011;8078;47.822;9.402;2023-07-13T04:19:51;4.32;;;3.47;;
15958;SDS011;8078;47.822;9.402;2023-07-13T04:22:16;5.10;;;3.63;;
15958;SDS011;8078;47.822;9.402;2023-07-13T04:24:42;7.47;;;3.50;;
15958;SDS011;8078;47.822;9.402;2023-07-13T04:27:08;5.47;;;4.30;;
15958;SDS011;8078;47.822;9.402;2023-07-13T04:29:34;7.13;;;4.43;;
15958;SDS011;8078;47.822;9.402;2023-07-13T04:31:59;5.32;;;4.03;;
15958;SDS011;8078;47.822;9.402;2023-07-13T04:34:25;8.43;;;3.97;;
15958;SDS011;8078;47.822;9.402;2023-07-13T04:36:51;7.18;;;4.43;;
15958;SDS011;8078;47.822;9.402;2023-07-13T04:39:17;9.63;;;4.60;;
15958;SDS011;8078;47.822;9.402;2023-07-13T04:41:42;7.57;;;5.22;;
15958;SDS011;8078;47.822;9.402;2023-07-13T04:44:08;9.38;;;5.43;;
15958;SDS011;8078;47.822;9.402;2023-07-13T04:46:33;6.78;;;4.65;;
15958;SDS011;8078;47.822;9.402;2023-07-13T04:48:59;6.72;;;4.50;;
15958;SDS011;8078;47.822;9.402;2023-07-13T04:51:25;9.57;;;4.10;;
15958;SDS011;8078;47.822;9.402;2023-07-13T04:53:51;5.63;;;3.67;;
15958;SDS011;8078;47.822;9.402;2023-07-13T04:56:17;6.53;;;3.80;;
15958;SDS011;8078;47.822;9.402;2023-07-13T04:58:44;4.82;;;3.05;;
15958;SDS011;8078;47.822;9.402;2023-07-13T05:01:10;4.18;;;3.00;;
15958;SDS011;8078;47.822;9.402;2023-07-13T05:03:36;8.45;;;3.13;;
15958;SDS011;8078;47.822;9.402;2023-07-13T05:06:03;3.75;;;2.75;;
15958;SDS011;8078;47.822;9.402;2023-07-13T05:08:31;6.35;;;3.13;;
15958;SDS011;8078;47.822;9.402;2023-07-13T05:10:58;7.70;;;3.00;;
15958;SDS011;8078;47.822;9.402;2023-07-13T05:13:25;5.80;;;3.58;;
15958;SDS011;8078;47.822;9.402;2023-07-13T05:16:06;8.10;;;4.10;;
15958;SDS011;8078;47.822;9.402;2023-07-13T05:18:32;4.90;;;3.35;;
15958;SDS011;8078;47.822;9.402;2023-07-13T05:21:02;10.73;;;4.00;;
15958;SDS011;8078;47.822;9.402;2023-07-13T05:23:31;10.98;;;4.25;;
15958;SDS011;8078;47.822;9.402;2023-07-13T05:25:58;8.48;;;4.80;;
15958;SDS011;8078;47.822;9.402;2023-07-13T05:28:24;7.95;;;5.20;;
15958;SDS011;8078;47.822;9.402;2023-07-13T05:30:50;7.20;;;4.40;;
15958;SDS011;8078;47.822;9.402;2023-07-13T05:33:16;5.20;;;4.15;;
15958;SDS011;8078;47.822;9.402;2023-07-13T05:35:42;4.25;;;3.20;;
15958;SDS011;8078;47.822;9.402;2023-07-13T05:38:07;6.22;;;3.58;;
15958;SDS011;8078;47.822;9.402;2023-07-13T05:40:33;6.93;;;3.90;;
15958;SDS011;8078;47.822;9.402;2023-07-13T05:42:58;8.48;;;4.75;;
15958;SDS011;8078;47.822;9.402;2023-07-13T05:45:24;6.97;;;3.92;;
15958;SDS011;8078;47.822;9.402;2023-07-13T05:47:50;7.25;;;3.75;;
15958;SDS011;8078;47.822;9.402;2023-07-13T05:50:16;4.40;;;2.85;;
15958;SDS011;8078;47.822;9.402;2023-07-13T05:52:42;5.50;;;3.30;;
15958;SDS011;8078;47.822;9.402;2023-07-13T05:55:07;5.15;;;3.22;;
15958;SDS011;8078;47.822;9.402;2023-07-13T05:57:33;4.78;;;2.85;;
15958;SDS011;8078;47.822;9.402;2023-07-13T05:59:59;7.50;;;3.35;;
15958;SDS011;8078;47.822;9.402;2023-07-13T06:02:24;5.22;;;2.60;;
15958;SDS011;8078;47.822;9.402;2023-07-13T06:04:51;7.70;;;2.63;;
15958;SDS011;8078;47.822;9.402;2023-07-13T06:07:17;5.60;;;2.60;;
15958;SDS011;8078;47.822;9.402;2023-07-13T06:09:42;6.45;;;2.92;;
15958;SDS011;8078;47.822;9.402;2023-07-13T06:12:08;7.82;;;3.47;;
15958;SDS011;8078;47.822;9.402;2023-07-13T06:14:34;5.05;;;2.58;;
15958;SDS011;8078;47.822;9.402;2023-07-13T06:16:59;3.40;;;2.80;;
15958;SDS011;8078;47.822;9.402;2023-07-13T06:19:25;5.38;;;2.03;;
15958;SDS011;8078;47.822;9.402;2023-07-13T06:21:50;4.40;;;2.35;;
15958;SDS011;8078;47.822;9.402;2023-07-13T06:24:16;4.43;;;2.67;;
15958;SDS011;8078;47.822;9.402;2023-07-13T06:26:41;5.57;;;2.53;;
15958;SDS011;8078;47.822;9.402;2023-07-13T06:29:07;7.05;;;2.85;;
15958;SDS011;8078;47.822;9.402;2023-07-13T06:31:33;5.68;;;2.17;;
15958;SDS011;8078;47.822;9.402;2023-07-13T06:33:58;4.60;;;2.28;;
15958;SDS011;8078;47.822;9.402;2023-07-13T06:36:24;2.92;;;2.20;;
15958;SDS011;8078;47.822;9.402;2023-07-13T06:38:49;5.15;;;2.20;;
15958;SDS011;8078;47.822;9.402;2023-07-13T06:41:15;3.33;;;1.98;;
15958;SDS011;8078;47.822;9.402;2023-07-13T06:43:40;6.00;;;2.30;;
15958;SDS011;8078;47.822;9.402;2023-07-13T06:46:06;3.22;;;2.00;;
15958;SDS011;8078;47.822;9.402;2023-07-13T06:48:32;5.97;;;2.55;;
15958;SDS011;8078;47.822;9.402;2023-07-13T06:50:58;11.18;;;2.15;;
15958;SDS011;8078;47.822;9.402;2023-07-13T06:53:25;5.10;;;2.10;;
15958;SDS011;8078;47.822;9.402;2023-07-13T06:55:51;2.60;;;1.80;;
15958;SDS011;8078;47.822;9.402;2023-07-13T06:58:19;5.95;;;1.95;;
15958;SDS011;8078;47.822;9.402;2023-07-13T07:00:44;5.45;;;1.70;;
15958;SDS011;8078;47.822;9.402;2023-07-13T07:03:10;3.13;;;1.50;;
15958;SDS011;8078;47.822;9.402;2023-07-13T07:05:36;4.22;;;1.95;;
15958;SDS011;8078;47.822;9.402;2023-07-13T07:08:02;6.50;;;2.10;;
15958;SDS011;8078;47.822;9.402;2023-07-13T07:10:28;3.70;;;2.15;;
15958;SDS011;8078;47.822;9.402;2023-07-13T07:12:55;2.60;;;1.80;;
15958;SDS011;8078;47.822;9.402;2023-07-13T07:15:20;3.75;;;1.50;;
15958;SDS011;8078;47.822;9.402;2023-07-13T07:17:46;3.42;;;1.73;;
15958;SDS011;8078;47.822;9.402;2023-07-13T07:20:11;4.35;;;1.73;;
15958;SDS011;8078;47.822;9.402;2023-07-13T07:22:37;4.72;;;1.80;;
15958;SDS011;8078;47.822;9.402;2023-07-13T07:25:03;6.22;;;1.95;;
15958;SDS011;8078;47.822;9.402;2023-07-13T07:27:29;4.13;;;1.50;;
15958;SDS011;8078;47.822;9.402;2023-07-13T07:29:54;2.80;;;1.40;;
15958;SDS011;8078;47.822;9.402;2023-07-13T07:32:20;3.17;;;1.60;;
15958;SDS011;8078;47.822;9.402;2023-07-13T07:34:45;6.40;;;1.90;;
15958;SDS011;8078;47.822;9.402;2023-07-13T07:37:12;3.00;;;1.40;;
15958;SDS011;8078;47.822;9.402;2023-07-13T07:39:38;2.35;;;1.50;;
15958;SDS011;8078;47.822;9.402;2023-07-13T07:42:04;3.53;;;1.70;;
15958;SDS011;8078;47.822;9.402;2023-07-13T07:44:30;4.97;;;1.80;;
15958;SDS011;8078;47.822;9.402;2023-07-13T07:46:57;3.25;;;1.70;;
15958;SDS011;8078;47.822;9.402;2023-07-13T07:49:22;1.85;;;1.50;;
15958;SDS011;8078;47.822;9.402;2023-07-13T07:51:48;6.75;;;1.77;;
15958;SDS011;8078;47.822;9.402;2023-07-13T07:54:14;4.60;;;1.80;;
15958;SDS011;8078;47.822;9.402;2023-07-13T07:56:39;2.97;;;1.50;;
15958;SDS011;8078;47.822;9.402;2023-07-13T07:59:05;3.90;;;1.63;;
15958;SDS011;8078;47.822;9.402;2023-07-13T08:01:31;2.28;;;1.33;;
15958;SDS011;8078;47.822;9.402;2023-07-13T08:03:56;3.28;;;1.60;;
15958;SDS011;8078;47.822;9.402;2023-07-13T08:06:22;2.08;;;1.60;;
15958;SDS011;8078;47.822;9.402;2023-07-13T08:08:48;3.28;;;1.30;;
15958;SDS011;8078;47.822;9.402;2023-07-13T08:11:13;3.13;;;1.55;;
15958;SDS011;8078;47.822;9.402;2023-07-13T08:13:39;8.73;;;1.63;;
15958;SDS011;8078;47.822;9.402;2023-07-13T08:16:05;3.42;;;1.85;;
15958;SDS011;8078;47.822;9.402;2023-07-13T08:18:31;4.32;;;1.60;;
15958;SDS011;8078;47.822;9.402;2023-07-13T08:20:57;3.28;;;1.70;;
15958;SDS011;8078;47.822;9.402;2023-07-13T08:23:23;5.75;;;1.80;;
15958;SDS011;8078;47.822;9.402;2023-07-13T08:25:53;4.60;;;1.80;;
15958;SDS011;8078;47.822;9.402;2023-07-13T08:28:22;4.13;;;1.77;;
15958;SDS011;8078;47.822;9.402;2023-07-13T08:30:48;3.70;;;1.55;;
15958;SDS011;8078;47.822;9.402;2023-07-13T08:33:21;3.58;;;2.05;;
15958;SDS011;8078;47.822;9.402;2023-07-13T08:35:49;4.65;;;1.55;;
15958;SDS011;8078;47.822;9.402;2023-07-13T08:38:15;8.27;;;2.08;;
15958;SDS011;8078;47.822;9.402;2023-07-13T08:40:41;3.30;;;1.50;;
15958;SDS011;8078;47.822;9.402;2023-07-13T08:43:15;4.93;;;1.60;;
15958;SDS011;8078;47.822;9.402;2023-07-13T08:45:44;4.20;;;1.85;;
15958;SDS011;8078;47.822;9.402;2023-07-13T08:48:18;3.63;;;1.70;;
15958;SDS011;8078;47.822;9.402;2023-07-13T08:53:36;4.75;;;1.30;;
15958;SDS011;8078;47.822;9.402;2023-07-13T08:56:08;2.90;;;1.50;;
15958;SDS011;8078;47.822;9.402;2023-07-13T08:58:38;2.65;;;1.40;;
15958;SDS011;8078;47.822;9.402;2023-07-13T09:01:22;5.40;;;1.50;;
15958;SDS011;8078;47.822;9.402;2023-07-13T09:04:08;4.45;;;1.38;;
15958;SDS011;8078;47.822;9.402;2023-07-13T09:09:19;4.85;;;1.30;;
15958;SDS011;8078;47.822;9.402;2023-07-13T09:12:07;5.20;;;1.38;;
15958;SDS011;8078;47.822;9.402;2023-07-13T09:14:56;2.92;;;1.35;;
15958;SDS011;8078;47.822;9.402;2023-07-13T09:17:25;3.08;;;1.45;;
15958;SDS011;8078;47.822;9.402;2023-07-13T09:20:10;3.85;;;1.77;;
15958;SDS011;8078;47.822;9.402;2023-07-13T09:22:52;10.00;;;1.77;;
15958;SDS011;8078;47.822;9.402;2023-07-13T09:25:24;3.83;;;1.80;;
15958;SDS011;8078;47.822;9.402;2023-07-13T09:27:55;3.58;;;1.70;;
15958;SDS011;8078;47.822;9.402;2023-07-13T09:33:09;3.50;;;1.70;;
15958;SDS011;8078;47.822;9.402;2023-07-13T09:35:35;5.22;;;1.60;;
15958;SDS011;8078;47.822;9.402;2023-07-13T09:38:11;2.20;;;1.40;;
15958;SDS011;8078;47.822;9.402;2023-07-13T09:43:18;3.20;;;1.63;;
15958;SDS011;8078;47.822;9.402;2023-07-13T09:45:46;5.20;;;2.25;;
15958;SDS011;8078;47.822;9.402;2023-07-13T09:48:15;3.58;;;1.20;;
15958;SDS011;8078;47.822;9.402;2023-07-13T09:50:42;1.80;;;1.40;;
15958;SDS011;8078;47.822;9.402;2023-07-13T09:53:13;3.40;;;1.40;;
15958;SDS011;8078;47.822;9.402;2023-07-13T09:55:40;2.05;;;1.50;;
15958;SDS011;8078;47.822;9.402;2023-07-13T10:00:41;4.05;;;1.95;;
15958;SDS011;8078;47.822;9.402;2023-07-13T10:03:19;4.13;;;1.95;;
15958;SDS011;8078;47.822;9.402;2023-07-13T10:05:48;4.90;;;2.03;;
15958;SDS011;8078;47.822;9.402;2023-07-13T10:10:44;6.60;;;1.80;;
15958;SDS011;8078;47.822;9.402;2023-07-13T10:13:23;5.57;;;2.15;;
15958;SDS011;8078;47.822;9.402;2023-07-13T10:15:55;3.05;;;1.50;;
15958;SDS011;8078;47.822;9.402;2023-07-13T10:18:22;1.60;;;1.50;;
15958;SDS011;8078;47.822;9.402;2023-07-13T10:20:50;2.88;;;1.75;;
15958;SDS011;8078;47.822;9.402;2023-07-13T10:23:20;4.88;;;2.03;;
15958;SDS011;8078;47.822;9.402;2023-07-13T10:25:49;4.65;;;1.95;;
15958;SDS011;8078;47.822;9.402;2023-07-13T10:28:35;4.20;;;2.13;;
15958;SDS011;8078;47.822;9.402;2023-07-13T10:31:02;4.53;;;2.10;;
15958;SDS011;8078;47.822;9.402;2023-07-13T10:33:33;1.77;;;1.30;;
15958;SDS011;8078;47.822;9.402;2023-07-13T10:36:07;2.75;;;1.50;;
15958;SDS011;8078;47.822;9.402;2023-07-13T10:38:46;5.53;;;1.80;;
15958;SDS011;8078;47.822;9.402;2023-07-13T10:41:17;3.25;;;1.85;;
15958;SDS011;8078;47.822;9.402;2023-07-13T10:43:46;3.58;;;1.70;;
15958;SDS011;8078;47.822;9.402;2023-07-13T10:46:16;5.45;;;1.90;;
15958;SDS011;8078;47.822;9.402;2023-07-13T10:48:44;2.92;;;1.88;;
15958;SDS011;8078;47.822;9.402;2023-07-13T10:51:14;2.05;;;1.40;;
15958;SDS011;8078;47.822;9.402;2023-07-13T10:53:43;3.53;;;1.60;;
15958;SDS011;8078;47.822;9.402;2023-07-13T10:56:28;3.13;;;1.50;;
15958;SDS011;8078;47.822;9.402;2023-07-13T11:04:42;4.13;;;1.50;;
15958;SDS011;8078;47.822;9.402;2023-07-13T11:07:17;6.35;;;2.30;;
15958;SDS011;8078;47.822;9.402;2023-07-13T11:09:46;5.15;;;1.80;;
15958;SDS011;8078;47.822;9.402;2023-07-13T11:12:26;3.28;;;1.70;;
15958;SDS011;8078;47.822;9.402;2023-07-13T11:17:29;2.75;;;2.30;;
15958;SDS011;8078;47.822;9.402;2023-07-13T11:25:37;6.15;;;2.50;;
15958;SDS011;8078;47.822;9.402;2023-07-13T11:30:39;6.40;;;1.88;;
15958;SDS011;8078;47.822;9.402;2023-07-13T11:38:14;3.08;;;1.88;;
15958;SDS011;8078;47.822;9.402;2023-07-13T11:40:44;3.05;;;1.80;;
15958;SDS011;8078;47.822;9.402;2023-07-13T11:43:12;3.38;;;2.13;;
15958;SDS011;8078;47.822;9.402;2023-07-13T11:45:40;3.47;;;2.00;;
15958;SDS011;8078;47.822;9.402;2023-07-13T11:48:17;3.95;;;1.98;;
15958;SDS011;8078;47.822;9.402;2023-07-13T11:51:03;4.50;;;2.50;;
15958;SDS011;8078;47.822;9.402;2023-07-13T11:53:33;3.05;;;2.30;;
15958;SDS011;8078;47.822;9.402;2023-07-13T11:56:10;7.53;;;2.17;;
15958;SDS011;8078;47.822;9.402;2023-07-13T11:58:37;6.25;;;2.40;;
15958;SDS011;8078;47.822;9.402;2023-07-13T12:01:03;4.18;;;1.80;;
15958;SDS011;8078;47.822;9.402;2023-07-13T12:03:30;3.40;;;1.73;;
15958;SDS011;8078;47.822;9.402;2023-07-13T12:05:59;2.20;;;2.00;;
15958;SDS011;8078;47.822;9.402;2023-07-13T12:08:27;3.78;;;1.60;;
15958;SDS011;8078;47.822;9.402;2023-07-13T12:10:58;3.58;;;1.92;;
15958;SDS011;8078;47.822;9.402;2023-07-13T12:13:39;6.38;;;2.70;;
15958;SDS011;8078;47.822;9.402;2023-07-13T12:16:14;3.88;;;2.67;;
15958;SDS011;8078;47.822;9.402;2023-07-13T12:18:47;2.97;;;2.10;;
15958;SDS011;8078;47.822;9.402;2023-07-13T12:21:14;4.88;;;2.50;;
15958;SDS011;8078;47.822;9.402;2023-07-13T12:23:43;2.65;;;2.15;;
15958;SDS011;8078;47.822;9.402;2023-07-13T12:26:12;3.40;;;2.15;;
15958;SDS011;8078;47.822;9.402;2023-07-13T12:28:54;3.30;;;2.10;;
15958;SDS011;8078;47.822;9.402;2023-07-13T12:34:02;3.40;;;2.40;;
15958;SDS011;8078;47.822;9.402;2023-07-13T12:36:32;2.45;;;2.22;;
15958;SDS011;8078;47.822;9.402;2023-07-13T12:39:01;3.97;;;2.20;;
15958;SDS011;8078;47.822;9.402;2023-07-13T12:41:54;2.90;;;2.30;;
15958;SDS011;8078;47.822;9.402;2023-07-13T12:44:54;3.42;;;2.25;;
15958;SDS011;8078;47.822;9.402;2023-07-13T12:47:23;3.97;;;2.10;;
15958;SDS011;8078;47.822;9.402;2023-07-13T12:49:50;6.65;;;2.60;;
15958;SDS011;8078;47.822;9.402;2023-07-13T12:52:30;4.45;;;2.47;;
15958;SDS011;8078;47.822;9.402;2023-07-13T12:55:05;2.50;;;1.70;;
15958;SDS011;8078;47.822;9.402;2023-07-13T12:57:40;5.60;;;2.10;;
15958;SDS011;8078;47.822;9.402;2023-07-13T13:02:51;4.60;;;2.33;;
15958;SDS011;8078;47.822;9.402;2023-07-13T13:05:19;3.20;;;2.15;;
15958;SDS011;8078;47.822;9.402;2023-07-13T13:07:48;4.03;;;1.83;;
15958;SDS011;8078;47.822;9.402;2023-07-13T13:10:14;5.70;;;2.33;;
15958;SDS011;8078;47.822;9.402;2023-07-13T13:12:40;3.42;;;2.00;;
15958;SDS011;8078;47.822;9.402;2023-07-13T13:15:12;4.88;;;2.35;;
15958;SDS011;8078;47.822;9.402;2023-07-13T13:17:37;5.78;;;1.92;;
15958;SDS011;8078;47.822;9.402;2023-07-13T13:20:17;4.15;;;2.03;;
15958;SDS011;8078;47.822;9.402;2023-07-13T13:22:45;2.83;;;2.00;;
15958;SDS011;8078;47.822;9.402;2023-07-13T13:25:11;2.47;;;1.80;;
15958;SDS011;8078;47.822;9.402;2023-07-13T13:27:37;6.05;;;2.40;;
15958;SDS011;8078;47.822;9.402;2023-07-13T13:30:09;5.35;;;2.35;;
15958;SDS011;8078;47.822;9.402;2023-07-13T13:32:42;3.30;;;2.20;;
15958;SDS011;8078;47.822;9.402;2023-07-13T13:35:14;2.42;;;2.22;;
15958;SDS011;8078;47.822;9.402;2023-07-13T13:37:40;4.30;;;2.05;;
15958;SDS011;8078;47.822;9.402;2023-07-13T13:40:13;4.28;;;2.85;;
15958;SDS011;8078;47.822;9.402;2023-07-13T13:42:40;3.35;;;2.10;;
15958;SDS011;8078;47.822;9.402;2023-07-13T13:45:07;3.85;;;1.98;;
15958;SDS011;8078;47.822;9.402;2023-07-13T13:47:34;5.32;;;2.15;;
15958;SDS011;8078;47.822;9.402;2023-07-13T13:50:01;5.00;;;2.42;;
15958;SDS011;8078;47.822;9.402;2023-07-13T13:52:36;3.78;;;2.20;;
15958;SDS011;8078;47.822;9.402;2023-07-13T13:55:01;3.47;;;2.25;;
15958;SDS011;8078;47.822;9.402;2023-07-13T14:00:24;4.07;;;2.50;;
15958;SDS011;8078;47.822;9.402;2023-07-13T14:02:49;3.83;;;2.30;;
15958;SDS011;8078;47.822;9.402;2023-07-13T14:05:25;3.53;;;2.00;;
15958;SDS011;8078;47.822;9.402;2023-07-13T14:07:51;3.78;;;2.90;;
15958;SDS011;8078;47.822;9.402;2023-07-13T14:10:18;3.80;;;2.10;;
15958;SDS011;8078;47.822;9.402;2023-07-13T14:12:45;2.28;;;1.90;;
15958;SDS011;8078;47.822;9.402;2023-07-13T14:15:21;4.53;;;1.80;;
15958;SDS011;8078;47.822;9.402;2023-07-13T14:17:51;6.57;;;1.90;;
15958;SDS011;8078;47.822;9.402;2023-07-13T14:20:18;3.00;;;2.13;;
15958;SDS011;8078;47.822;9.402;2023-07-13T14:22:45;2.17;;;1.95;;
15958;SDS011;8078;47.822;9.402;2023-07-13T14:25:12;3.22;;;1.88;;
15958;SDS011;8078;47.822;9.402;2023-07-13T14:27:38;3.97;;;2.53;;
15958;SDS011;8078;47.822;9.402;2023-07-13T14:30:12;4.70;;;2.05;;
15958;SDS011;8078;47.822;9.402;2023-07-13T14:32:42;2.83;;;2.17;;
15958;SDS011;8078;47.822;9.402;2023-07-13T14:35:10;3.17;;;2.22;;
15958;SDS011;8078;47.822;9.402;2023-07-13T14:37:37;3.53;;;1.95;;
15958;SDS011;8078;47.822;9.402;2023-07-13T14:40:11;2.38;;;2.08;;
15958;SDS011;8078;47.822;9.402;2023-07-13T14:42:46;5.47;;;2.33;;
15958;SDS011;8078;47.822;9.402;2023-07-13T14:45:16;5.10;;;2.15;;
15958;SDS011;8078;47.822;9.402;2023-07-13T14:47:44;3.28;;;2.63;;
15958;SDS011;8078;47.822;9.402;2023-07-13T14:50:20;5.55;;;2.40;;
15958;SDS011;8078;47.822;9.402;2023-07-13T14:52:49;3.17;;;2.38;;
15958;SDS011;8078;47.822;9.402;2023-07-13T14:55:16;3.67;;;2.25;;
15958;SDS011;8078;47.822;9.402;2023-07-13T14:57:43;3.20;;;2.20;;
15958;SDS011;8078;47.822;9.402;2023-07-13T15:00:12;3.65;;;2.58;;
15958;SDS011;8078;47.822;9.402;2023-07-13T15:02:38;4.00;;;2.28;;
15958;SDS011;8078;47.822;9.402;2023-07-13T15:05:11;3.92;;;2.40;;
15958;SDS011;8078;47.822;9.402;2023-07-13T15:07:46;3.67;;;2.05;;
15958;SDS011;8078;47.822;9.402;2023-07-13T15:10:16;3.53;;;1.90;;
15958;SDS011;8078;47.822;9.402;2023-07-13T15:12:43;4.15;;;2.13;;
15958;SDS011;8078;47.822;9.402;2023-07-13T15:15:09;3.33;;;2.38;;
15958;SDS011;8078;47.822;9.402;2023-07-13T15:17:40;2.95;;;2.35;;
15958;SDS011;8078;47.822;9.402;2023-07-13T15:22:46;3.53;;;2.50;;
15958;SDS011;8078;47.822;9.402;2023-07-13T15:25:17;6.10;;;2.75;;
15958;SDS011;8078;47.822;9.402;2023-07-13T15:27:45;6.20;;;2.58;;
15958;SDS011;8078;47.822;9.402;2023-07-13T15:30:11;4.63;;;2.40;;
15958;SDS011;8078;47.822;9.402;2023-07-13T15:32:37;4.45;;;2.53;;
15958;SDS011;8078;47.822;9.402;2023-07-13T15:35:04;3.33;;;2.72;;
15958;SDS011;8078;47.822;9.402;2023-07-13T15:37:30;4.20;;;2.58;;
15958;SDS011;8078;47.822;9.402;2023-07-13T15:39:56;4.00;;;2.40;;
15958;SDS011;8078;47.822;9.402;2023-07-13T15:42:22;3.20;;;2.45;;
15958;SDS011;8078;47.822;9.402;2023-07-13T15:44:48;3.28;;;2.58;;
15958;SDS011;8078;47.822;9.402;2023-07-13T15:47:14;2.33;;;2.03;;
15958;SDS011;8078;47.822;9.402;2023-07-13T15:49:40;3.58;;;2.47;;
15958;SDS011;8078;47.822;9.402;2023-07-13T15:52:19;4.53;;;2.63;;
15958;SDS011;8078;47.822;9.402;2023-07-13T15:54:48;4.38;;;2.17;;
15958;SDS011;8078;47.822;9.402;2023-07-13T15:57:14;3.53;;;2.40;;
15958;SDS011;8078;47.822;9.402;2023-07-13T15:59:40;3.08;;;2.17;;